METAR Data
IDs: Format: Raw Decoded Include TAF

Data at: 2207 UTC 02 Aug 2021

KFSD 022156Z VRB03KT 10SM SCT065 27/13 A3012 RMK AO2 SLP193 T02720128